sensor_id;sensor_type;location;lat;lon;timestamp;pressure;altitude;pressure_sealevel;temperature;humidity
74627;BME280;63132;52.268;5.192;2023-03-16T00:02:04;101691.59;;;3.32;63.98
74627;BME280;63132;52.268;5.192;2023-03-16T00:04:30;101687.66;;;3.18;64.38
74627;BME280;63132;52.268;5.192;2023-03-16T00:06:57;101682.34;;;3.20;64.42
74627;BME280;63132;52.268;5.192;2023-03-16T00:09:22;101680.13;;;3.33;64.90
74627;BME280;63132;52.268;5.192;2023-03-16T00:11:56;101675.16;;;3.25;65.13
74627;BME280;63132;52.268;5.192;2023-03-16T00:14:23;101669.00;;;3.25;65.25
74627;BME280;63132;52.268;5.192;2023-03-16T00:16:48;101674.34;;;3.23;65.55
74627;BME280;63132;52.268;5.192;2023-03-16T00:19:14;101662.38;;;3.14;65.95
74627;BME280;63132;52.268;5.192;2023-03-16T00:21:39;101660.75;;;3.10;65.42
74627;BME280;63132;52.268;5.192;2023-03-16T00:24:05;101653.47;;;3.18;65.70
74627;BME280;63132;52.268;5.192;2023-03-16T00:26:30;101649.91;;;3.19;65.59
74627;BME280;63132;52.268;5.192;2023-03-16T00:28:56;101651.69;;;3.19;65.99
74627;BME280;63132;52.268;5.192;2023-03-16T00:31:21;101644.13;;;3.10;66.62
74627;BME280;63132;52.268;5.192;2023-03-16T00:33:49;101639.56;;;3.15;66.18
74627;BME280;63132;52.268;5.192;2023-03-16T00:36:15;101641.34;;;3.14;66.34
74627;BME280;63132;52.268;5.192;2023-03-16T00:38:41;101638.72;;;3.14;66.42
74627;BME280;63132;52.268;5.192;2023-03-16T00:41:12;101647.47;;;3.15;66.63
74627;BME280;63132;52.268;5.192;2023-03-16T00:43:41;101640.38;;;3.17;66.51
74627;BME280;63132;52.268;5.192;2023-03-16T00:46:08;101636.81;;;3.18;66.93
74627;BME280;63132;52.268;5.192;2023-03-16T00:48:39;101637.56;;;3.22;66.91
74627;BME280;63132;52.268;5.192;2023-03-16T00:51:08;101642.50;;;3.31;66.33
74627;BME280;63132;52.268;5.192;2023-03-16T00:53:35;101632.66;;;3.36;66.33
74627;BME280;63132;52.268;5.192;2023-03-16T00:56:01;101617.31;;;3.49;66.90
74627;BME280;63132;52.268;5.192;2023-03-16T00:58:29;101618.69;;;3.36;67.02
74627;BME280;63132;52.268;5.192;2023-03-16T01:00:54;101624.69;;;3.39;66.82
74627;BME280;63132;52.268;5.192;2023-03-16T01:03:21;101611.47;;;3.41;66.56
74627;BME280;63132;52.268;5.192;2023-03-16T01:05:47;101613.47;;;3.34;66.77
74627;BME280;63132;52.268;5.192;2023-03-16T01:08:13;101612.69;;;3.32;67.46
74627;BME280;63132;52.268;5.192;2023-03-16T01:10:38;101612.28;;;3.43;66.91
74627;BME280;63132;52.268;5.192;2023-03-16T01:13:05;101605.28;;;3.42;66.86
74627;BME280;63132;52.268;5.192;2023-03-16T01:15:32;101609.94;;;3.35;67.11
74627;BME280;63132;52.268;5.192;2023-03-16T01:17:59;101594.41;;;3.27;68.12
74627;BME280;63132;52.268;5.192;2023-03-16T01:20:24;101596.66;;;3.38;67.46
74627;BME280;63132;52.268;5.192;2023-03-16T01:22:50;101589.81;;;3.34;67.63
74627;BME280;63132;52.268;5.192;2023-03-16T01:25:16;101587.06;;;3.37;68.29
74627;BME280;63132;52.268;5.192;2023-03-16T01:27:43;101590.03;;;3.28;68.41
74627;BME280;63132;52.268;5.192;2023-03-16T01:30:09;101584.81;;;3.26;68.57
74627;BME280;63132;52.268;5.192;2023-03-16T01:32:37;101574.03;;;3.34;68.38
74627;BME280;63132;52.268;5.192;2023-03-16T01:35:02;101574.25;;;3.28;68.47
74627;BME280;63132;52.268;5.192;2023-03-16T01:37:29;101574.19;;;3.29;68.67
74627;BME280;63132;52.268;5.192;2023-03-16T01:39:54;101572.16;;;3.36;68.83
74627;BME280;63132;52.268;5.192;2023-03-16T01:42:20;101562.38;;;3.40;69.06
74627;BME280;63132;52.268;5.192;2023-03-16T01:47:15;101558.34;;;3.31;69.63
74627;BME280;63132;52.268;5.192;2023-03-16T01:49:41;101551.38;;;3.30;69.34
74627;BME280;63132;52.268;5.192;2023-03-16T01:52:16;101547.13;;;3.50;68.64
74627;BME280;63132;52.268;5.192;2023-03-16T01:57:10;101538.56;;;3.21;70.25
74627;BME280;63132;52.268;5.192;2023-03-16T01:59:43;101543.69;;;3.24;69.65
74627;BME280;63132;52.268;5.192;2023-03-16T02:02:10;101530.69;;;3.21;69.65
74627;BME280;63132;52.268;5.192;2023-03-16T02:04:45;101536.56;;;3.27;69.96
74627;BME280;63132;52.268;5.192;2023-03-16T02:07:14;101532.69;;;3.38;69.80
74627;BME280;63132;52.268;5.192;2023-03-16T02:09:43;101523.25;;;3.32;69.80
74627;BME280;63132;52.268;5.192;2023-03-16T02:12:13;101529.53;;;3.28;70.33
74627;BME280;63132;52.268;5.192;2023-03-16T02:14:47;101520.97;;;3.23;70.52
74627;BME280;63132;52.268;5.192;2023-03-16T02:17:15;101521.50;;;3.31;70.49
74627;BME280;63132;52.268;5.192;2023-03-16T02:20:00;101518.88;;;3.31;70.90
74627;BME280;63132;52.268;5.192;2023-03-16T02:22:35;101514.56;;;3.30;70.75
74627;BME280;63132;52.268;5.192;2023-03-16T02:25:02;101504.03;;;3.30;71.46
74627;BME280;63132;52.268;5.192;2023-03-16T02:27:38;101510.56;;;3.42;71.09
74627;BME280;63132;52.268;5.192;2023-03-16T02:30:13;101507.13;;;3.41;70.36
74627;BME280;63132;52.268;5.192;2023-03-16T02:32:40;101501.84;;;3.41;70.88
74627;BME280;63132;52.268;5.192;2023-03-16T02:35:07;101507.50;;;3.30;71.11
74627;BME280;63132;52.268;5.192;2023-03-16T02:37:33;101511.06;;;3.29;71.59
74627;BME280;63132;52.268;5.192;2023-03-16T02:40:00;101508.56;;;3.26;71.93
74627;BME280;63132;52.268;5.192;2023-03-16T02:42:27;101504.13;;;3.27;71.61
74627;BME280;63132;52.268;5.192;2023-03-16T02:44:57;101502.31;;;3.29;71.70
74627;BME280;63132;52.268;5.192;2023-03-16T02:49:55;101499.44;;;3.35;72.52
74627;BME280;63132;52.268;5.192;2023-03-16T02:52:20;101507.34;;;3.35;72.85
74627;BME280;63132;52.268;5.192;2023-03-16T02:54:46;101497.75;;;3.34;72.99
74627;BME280;63132;52.268;5.192;2023-03-16T02:57:11;101504.03;;;3.30;73.17
74627;BME280;63132;52.268;5.192;2023-03-16T02:59:36;101496.25;;;3.27;73.94
74627;BME280;63132;52.268;5.192;2023-03-16T03:02:02;101498.06;;;3.25;74.39
74627;BME280;63132;52.268;5.192;2023-03-16T03:04:27;101496.38;;;3.24;75.11
74627;BME280;63132;52.268;5.192;2023-03-16T03:06:53;101490.88;;;3.30;75.10
74627;BME280;63132;52.268;5.192;2023-03-16T03:09:18;101494.41;;;3.29;74.70
74627;BME280;63132;52.268;5.192;2023-03-16T03:11:44;101491.56;;;3.35;75.34
74627;BME280;63132;52.268;5.192;2023-03-16T03:14:12;101494.41;;;3.29;75.74
74627;BME280;63132;52.268;5.192;2023-03-16T03:16:40;101496.38;;;3.24;76.20
74627;BME280;63132;52.268;5.192;2023-03-16T03:19:06;101499.13;;;3.21;76.65
74627;BME280;63132;52.268;5.192;2023-03-16T03:21:31;101490.44;;;3.18;76.71
74627;BME280;63132;52.268;5.192;2023-03-16T03:23:56;101487.81;;;3.18;77.31
74627;BME280;63132;52.268;5.192;2023-03-16T03:26:22;101482.34;;;3.23;77.54
74627;BME280;63132;52.268;5.192;2023-03-16T03:28:48;101482.25;;;3.26;77.40
74627;BME280;63132;52.268;5.192;2023-03-16T03:31:20;101474.66;;;3.18;77.05
74627;BME280;63132;52.268;5.192;2023-03-16T03:33:45;101465.16;;;3.14;77.42
74627;BME280;63132;52.268;5.192;2023-03-16T03:36:11;101471.56;;;3.07;77.99
74627;BME280;63132;52.268;5.192;2023-03-16T03:38:37;101467.50;;;2.98;79.11
74627;BME280;63132;52.268;5.192;2023-03-16T03:41:03;101468.22;;;3.02;78.99
74627;BME280;63132;52.268;5.192;2023-03-16T03:43:32;101466.31;;;3.07;79.53
74627;BME280;63132;52.268;5.192;2023-03-16T03:46:01;101460.94;;;3.10;79.74
74627;BME280;63132;52.268;5.192;2023-03-16T03:48:27;101460.94;;;3.10;79.24
74627;BME280;63132;52.268;5.192;2023-03-16T03:50:53;101457.25;;;2.90;79.94
74627;BME280;63132;52.268;5.192;2023-03-16T03:53:19;101453.16;;;3.07;79.51
74627;BME280;63132;52.268;5.192;2023-03-16T03:55:45;101453.84;;;2.88;80.44
74627;BME280;63132;52.268;5.192;2023-03-16T03:58:10;101444.50;;;2.79;80.86
74627;BME280;63132;52.268;5.192;2023-03-16T04:00:37;101454.06;;;2.82;80.39
74627;BME280;63132;52.268;5.192;2023-03-16T04:03:02;101450.41;;;2.86;80.01
74627;BME280;63132;52.268;5.192;2023-03-16T04:05:27;101439.09;;;2.84;80.40
74627;BME280;63132;52.268;5.192;2023-03-16T04:07:54;101440.00;;;2.83;80.35
74627;BME280;63132;52.268;5.192;2023-03-16T04:10:22;101445.44;;;2.78;81.08
74627;BME280;63132;52.268;5.192;2023-03-16T04:12:48;101442.91;;;2.75;80.53
74627;BME280;63132;52.268;5.192;2023-03-16T04:15:13;101437.22;;;2.88;80.19
74627;BME280;63132;52.268;5.192;2023-03-16T04:17:41;101444.47;;;2.81;80.75
74627;BME280;63132;52.268;5.192;2023-03-16T04:20:07;101434.81;;;2.81;80.84
74627;BME280;63132;52.268;5.192;2023-03-16T04:22:39;101426.03;;;2.82;81.20
74627;BME280;63132;52.268;5.192;2023-03-16T04:25:04;101426.72;;;2.88;80.60
74627;BME280;63132;52.268;5.192;2023-03-16T04:27:30;101428.03;;;3.00;80.45
74627;BME280;63132;52.268;5.192;2023-03-16T04:30:02;101429.00;;;2.97;80.68
74627;BME280;63132;52.268;5.192;2023-03-16T04:32:29;101419.34;;;2.98;80.01
74627;BME280;63132;52.268;5.192;2023-03-16T04:34:56;101420.59;;;2.87;80.50
74627;BME280;63132;52.268;5.192;2023-03-16T04:37:21;101418.69;;;2.91;80.95
74627;BME280;63132;52.268;5.192;2023-03-16T04:39:46;101420.53;;;2.89;80.89
74627;BME280;63132;52.268;5.192;2023-03-16T04:42:12;101418.84;;;3.10;80.65
74627;BME280;63132;52.268;5.192;2023-03-16T04:44:38;101414.81;;;3.01;80.36
74627;BME280;63132;52.268;5.192;2023-03-16T04:47:09;101412.88;;;3.06;80.26
74627;BME280;63132;52.268;5.192;2023-03-16T04:49:35;101413.59;;;3.10;79.88
74627;BME280;63132;52.268;5.192;2023-03-16T04:52:00;101413.88;;;3.02;80.35
74627;BME280;63132;52.268;5.192;2023-03-16T04:54:26;101413.59;;;3.10;79.59
74627;BME280;63132;52.268;5.192;2023-03-16T04:56:52;101409.28;;;3.09;80.00
74627;BME280;63132;52.268;5.192;2023-03-16T04:59:17;101411.97;;;3.30;79.59
74627;BME280;63132;52.268;5.192;2023-03-16T05:01:43;101410.69;;;3.18;79.74
74627;BME280;63132;52.268;5.192;2023-03-16T05:04:09;101414.97;;;3.21;79.47
74627;BME280;63132;52.268;5.192;2023-03-16T05:06:34;101413.59;;;3.10;79.68
74627;BME280;63132;52.268;5.192;2023-03-16T05:09:00;101412.44;;;3.17;79.99
74627;BME280;63132;52.268;5.192;2023-03-16T05:11:26;101415.94;;;3.18;79.67
74627;BME280;63132;52.268;5.192;2023-03-16T05:13:52;101409.28;;;3.31;79.50
74627;BME280;63132;52.268;5.192;2023-03-16T05:16:17;101407.69;;;3.27;79.30
74627;BME280;63132;52.268;5.192;2023-03-16T05:18:42;101410.06;;;3.34;79.45
74627;BME280;63132;52.268;5.192;2023-03-16T05:21:08;101401.53;;;3.28;79.45
74627;BME280;63132;52.268;5.192;2023-03-16T05:23:34;101411.19;;;3.28;80.02
74627;BME280;63132;52.268;5.192;2023-03-16T05:25:59;101404.44;;;3.21;79.94
74627;BME280;63132;52.268;5.192;2023-03-16T05:28:25;101403.06;;;3.34;79.91
74627;BME280;63132;52.268;5.192;2023-03-16T05:30:51;101401.81;;;3.21;80.16
74627;BME280;63132;52.268;5.192;2023-03-16T05:33:16;101407.50;;;3.32;79.75
74627;BME280;63132;52.268;5.192;2023-03-16T05:35:42;101397.09;;;3.29;79.75
74627;BME280;63132;52.268;5.192;2023-03-16T05:38:07;101393.88;;;3.22;80.53
74627;BME280;63132;52.268;5.192;2023-03-16T05:40:34;101384.59;;;3.12;81.12
74627;BME280;63132;52.268;5.192;2023-03-16T05:43:01;101381.81;;;3.16;81.47
74627;BME280;63132;52.268;5.192;2023-03-16T05:45:29;101383.06;;;3.06;81.80
74627;BME280;63132;52.268;5.192;2023-03-16T05:47:55;101377.53;;;3.14;82.00
74627;BME280;63132;52.268;5.192;2023-03-16T05:50:20;101363.72;;;3.08;82.56
74627;BME280;63132;52.268;5.192;2023-03-16T05:52:46;101368.78;;;3.13;82.29
74627;BME280;63132;52.268;5.192;2023-03-16T05:55:14;101361.44;;;3.22;82.20
74627;BME280;63132;52.268;5.192;2023-03-16T05:57:40;101359.53;;;3.25;81.89
74627;BME280;63132;52.268;5.192;2023-03-16T06:00:07;101368.91;;;3.10;81.86
74627;BME280;63132;52.268;5.192;2023-03-16T06:02:43;101377.16;;;3.23;82.15
74627;BME280;63132;52.268;5.192;2023-03-16T06:05:11;101376.66;;;3.13;81.91
74627;BME280;63132;52.268;5.192;2023-03-16T06:07:36;101368.97;;;3.08;82.12
74627;BME280;63132;52.268;5.192;2023-03-16T06:10:02;101368.53;;;3.19;81.82
74627;BME280;63132;52.268;5.192;2023-03-16T06:12:27;101375.47;;;3.22;82.05
74627;BME280;63132;52.268;5.192;2023-03-16T06:14:53;101363.09;;;3.24;82.43
74627;BME280;63132;52.268;5.192;2023-03-16T06:17:18;101365.91;;;3.19;81.74
74627;BME280;63132;52.268;5.192;2023-03-16T06:19:43;101362.53;;;3.16;82.34
74627;BME280;63132;52.268;5.192;2023-03-16T06:22:09;101363.16;;;3.23;82.05
74627;BME280;63132;52.268;5.192;2023-03-16T06:24:35;101367.78;;;3.38;82.17
74627;BME280;63132;52.268;5.192;2023-03-16T06:27:00;101360.91;;;3.36;81.50
74627;BME280;63132;52.268;5.192;2023-03-16T06:29:25;101354.41;;;3.45;81.60
74627;BME280;63132;52.268;5.192;2023-03-16T06:31:51;101354.63;;;3.38;81.66
74627;BME280;63132;52.268;5.192;2023-03-16T06:34:18;101358.25;;;3.58;81.26
74627;BME280;63132;52.268;5.192;2023-03-16T06:36:44;101350.91;;;3.44;81.37
74627;BME280;63132;52.268;5.192;2023-03-16T06:39:09;101351.38;;;3.54;81.14
74627;BME280;63132;52.268;5.192;2023-03-16T06:41:35;101347.78;;;3.57;81.28
74627;BME280;63132;52.268;5.192;2023-03-16T06:44:01;101345.34;;;3.52;81.63
74627;BME280;63132;52.268;5.192;2023-03-16T06:46:26;101341.78;;;3.53;81.79
74627;BME280;63132;52.268;5.192;2023-03-16T06:48:52;101340.72;;;3.57;81.96
74627;BME280;63132;52.268;5.192;2023-03-16T06:51:20;101335.44;;;3.79;81.42
74627;BME280;63132;52.268;5.192;2023-03-16T06:53:45;101343.81;;;3.89;81.42
74627;BME280;63132;52.268;5.192;2023-03-16T06:56:11;101335.22;;;3.84;80.81
74627;BME280;63132;52.268;5.192;2023-03-16T06:58:36;101339.69;;;4.03;80.56
74627;BME280;63132;52.268;5.192;2023-03-16T07:01:02;101335.63;;;3.96;80.60
74627;BME280;63132;52.268;5.192;2023-03-16T07:03:28;101327.59;;;3.99;80.31
74627;BME280;63132;52.268;5.192;2023-03-16T07:05:54;101314.94;;;4.07;80.51
74627;BME280;63132;52.268;5.192;2023-03-16T07:08:19;101324.03;;;4.40;79.85
74627;BME280;63132;52.268;5.192;2023-03-16T07:10:45;101326.88;;;4.16;78.98
74627;BME280;63132;52.268;5.192;2023-03-16T07:13:10;101326.50;;;4.24;79.21
74627;BME280;63132;52.268;5.192;2023-03-16T07:15:36;101326.38;;;4.27;79.10
74627;BME280;63132;52.268;5.192;2023-03-16T07:18:01;101321.84;;;4.10;79.46
74627;BME280;63132;52.268;5.192;2023-03-16T07:20:27;101328.38;;;4.22;79.57
74627;BME280;63132;52.268;5.192;2023-03-16T07:22:55;101325.22;;;4.13;79.67
74627;BME280;63132;52.268;5.192;2023-03-16T07:25:20;101316.53;;;4.11;79.69
74627;BME280;63132;52.268;5.192;2023-03-16T07:27:46;101307.63;;;4.14;80.01
74627;BME280;63132;52.268;5.192;2023-03-16T07:30:11;101314.53;;;4.17;79.77
74627;BME280;63132;52.268;5.192;2023-03-16T07:32:39;101319.22;;;4.10;80.02
74627;BME280;63132;52.268;5.192;2023-03-16T07:35:06;101320.53;;;3.99;80.59
74627;BME280;63132;52.268;5.192;2023-03-16T07:37:32;101320.50;;;4.01;80.08
74627;BME280;63132;52.268;5.192;2023-03-16T07:39:59;101331.47;;;3.90;80.34
74627;BME280;63132;52.268;5.192;2023-03-16T07:42:24;101332.41;;;3.89;80.58
74627;BME280;63132;52.268;5.192;2023-03-16T07:44:50;101338.56;;;4.09;80.95
74627;BME280;63132;52.268;5.192;2023-03-16T07:47:16;101326.06;;;4.14;81.37
74627;BME280;63132;52.268;5.192;2023-03-16T07:49:41;101327.44;;;4.23;81.43
74627;BME280;63132;52.268;5.192;2023-03-16T07:52:09;101332.63;;;4.24;80.85
74627;BME280;63132;52.268;5.192;2023-03-16T07:54:34;101338.19;;;4.37;81.17
74627;BME280;63132;52.268;5.192;2023-03-16T07:56:59;101329.28;;;4.21;80.68
74627;BME280;63132;52.268;5.192;2023-03-16T07:59:25;101337.47;;;4.34;80.46
74627;BME280;63132;52.268;5.192;2023-03-16T08:01:51;101323.88;;;4.43;80.70
74627;BME280;63132;52.268;5.192;2023-03-16T08:04:16;101327.59;;;4.58;81.04
74627;BME280;63132;52.268;5.192;2023-03-16T08:06:42;101315.56;;;4.72;79.23
74627;BME280;63132;52.268;5.192;2023-03-16T08:09:08;101313.84;;;4.90;79.42
74627;BME280;63132;52.268;5.192;2023-03-16T08:11:33;101312.59;;;5.17;78.86
74627;BME280;63132;52.268;5.192;2023-03-16T08:13:58;101308.81;;;5.23;76.28
74627;BME280;63132;52.268;5.192;2023-03-16T08:16:26;101308.56;;;5.09;77.25
74627;BME280;63132;52.268;5.192;2023-03-16T08:18:55;101307.53;;;5.12;77.47
74627;BME280;63132;52.268;5.192;2023-03-16T08:21:21;101312.03;;;5.10;77.15
74627;BME280;63132;52.268;5.192;2023-03-16T08:23:46;101302.69;;;5.40;76.35
74627;BME280;63132;52.268;5.192;2023-03-16T08:26:17;101299.50;;;5.33;76.73
74627;BME280;63132;52.268;5.192;2023-03-16T08:28:43;101308.19;;;5.35;75.49
74627;BME280;63132;52.268;5.192;2023-03-16T08:31:13;101307.78;;;5.25;75.98
74627;BME280;63132;52.268;5.192;2023-03-16T08:33:43;101312.63;;;5.35;74.81
74627;BME280;63132;52.268;5.192;2023-03-16T08:36:10;101319.38;;;5.58;74.65
74627;BME280;63132;52.268;5.192;2023-03-16T08:38:37;101320.25;;;5.59;73.23
74627;BME280;63132;52.268;5.192;2023-03-16T08:41:04;101316.34;;;5.66;73.49
74627;BME280;63132;52.268;5.192;2023-03-16T08:43:30;101315.88;;;5.75;71.99
74627;BME280;63132;52.268;5.192;2023-03-16T08:45:55;101316.66;;;5.95;71.46
74627;BME280;63132;52.268;5.192;2023-03-16T08:48:21;101317.88;;;6.06;71.24
74627;BME280;63132;52.268;5.192;2023-03-16T08:50:46;101292.25;;;6.08;69.16
74627;BME280;63132;52.268;5.192;2023-03-16T08:53:13;101301.22;;;6.21;69.88
74627;BME280;63132;52.268;5.192;2023-03-16T08:55:39;101300.41;;;6.37;69.13
74627;BME280;63132;52.268;5.192;2023-03-16T08:58:06;101301.97;;;6.57;68.71
74627;BME280;63132;52.268;5.192;2023-03-16T09:00:32;101291.38;;;6.41;68.35
74627;BME280;63132;52.268;5.192;2023-03-16T09:02:58;101287.66;;;6.61;68.65
74627;BME280;63132;52.268;5.192;2023-03-16T09:05:25;101292.69;;;6.66;68.31
74627;BME280;63132;52.268;5.192;2023-03-16T09:07:50;101290.13;;;6.81;67.30
74627;BME280;63132;52.268;5.192;2023-03-16T09:10:17;101291.66;;;6.69;66.75
74627;BME280;63132;52.268;5.192;2023-03-16T09:12:44;101292.47;;;6.85;66.95
74627;BME280;63132;52.268;5.192;2023-03-16T09:15:10;101291.66;;;6.85;66.60
74627;BME280;63132;52.268;5.192;2023-03-16T09:17:38;101292.09;;;6.77;67.85
74627;BME280;63132;52.268;5.192;2023-03-16T09:20:06;101290.78;;;7.01;67.25
74627;BME280;63132;52.268;5.192;2023-03-16T09:22:34;101283.88;;;6.98;65.66
74627;BME280;63132;52.268;5.192;2023-03-16T09:25:00;101295.22;;;6.84;66.15
74627;BME280;63132;52.268;5.192;2023-03-16T09:27:26;101281.13;;;6.99;65.20
74627;BME280;63132;52.268;5.192;2023-03-16T09:29:51;101283.19;;;6.94;66.43
74627;BME280;63132;52.268;5.192;2023-03-16T09:32:19;101287.28;;;7.00;65.32
74627;BME280;63132;52.268;5.192;2023-03-16T09:34:45;101283.53;;;7.04;64.28
74627;BME280;63132;52.268;5.192;2023-03-16T09:37:11;101283.44;;;7.06;64.29
74627;BME280;63132;52.268;5.192;2023-03-16T09:39:36;101286.13;;;7.20;64.54
74627;BME280;63132;52.268;5.192;2023-03-16T09:42:33;101266.84;;;7.49;64.10
74627;BME280;63132;52.268;5.192;2023-03-16T09:45:30;101272.25;;;7.62;64.43
74627;BME280;63132;52.268;5.192;2023-03-16T09:48:01;101271.53;;;7.75;63.44
74627;BME280;63132;52.268;5.192;2023-03-16T09:50:32;101273.53;;;8.15;62.64
74627;BME280;63132;52.268;5.192;2023-03-16T09:53:12;101283.25;;;8.29;61.07
74627;BME280;63132;52.268;5.192;2023-03-16T09:55:41;101261.69;;;8.06;60.87
74627;BME280;63132;52.268;5.192;2023-03-16T09:58:19;101267.38;;;8.00;61.38
74627;BME280;63132;52.268;5.192;2023-03-16T10:05:47;101250.50;;;8.30;59.53
74627;BME280;63132;52.268;5.192;2023-03-16T10:08:21;101260.31;;;8.43;60.00
74627;BME280;63132;52.268;5.192;2023-03-16T10:19:38;101256.00;;;8.41;58.83
74627;BME280;63132;52.268;5.192;2023-03-16T10:22:32;101254.34;;;8.68;58.40
74627;BME280;63132;52.268;5.192;2023-03-16T10:25:11;101245.47;;;8.82;58.48
74627;BME280;63132;52.268;5.192;2023-03-16T10:27:42;101247.97;;;8.71;58.05
74627;BME280;63132;52.268;5.192;2023-03-16T10:30:22;101243.25;;;9.17;57.28
74627;BME280;63132;52.268;5.192;2023-03-16T10:32:49;101234.81;;;8.97;57.53
74627;BME280;63132;52.268;5.192;2023-03-16T10:35:28;101233.44;;;9.04;57.62
74627;BME280;63132;52.268;5.192;2023-03-16T10:37:54;101226.56;;;9.15;56.81
74627;BME280;63132;52.268;5.192;2023-03-16T10:40:21;101237.56;;;9.49;56.42
74627;BME280;63132;52.268;5.192;2023-03-16T10:42:47;101230.09;;;9.41;55.34
74627;BME280;63132;52.268;5.192;2023-03-16T10:45:30;101221.84;;;9.72;55.66
74627;BME280;63132;52.268;5.192;2023-03-16T10:48:16;101225.03;;;9.90;55.02
74627;BME280;63132;52.268;5.192;2023-03-16T10:50:49;101216.72;;;9.95;55.57
74627;BME280;63132;52.268;5.192;2023-03-16T10:53:35;101208.59;;;10.23;53.59
74627;BME280;63132;52.268;5.192;2023-03-16T10:56:18;101212.09;;;10.10;55.53
74627;BME280;63132;52.268;5.192;2023-03-16T10:58:44;101197.78;;;10.37;53.97
74627;BME280;63132;52.268;5.192;2023-03-16T11:01:20;101196.22;;;10.35;53.42
74627;BME280;63132;52.268;5.192;2023-03-16T11:03:50;101194.06;;;10.40;53.66
74627;BME280;63132;52.268;5.192;2023-03-16T11:06:26;101203.81;;;10.15;54.30
74627;BME280;63132;52.268;5.192;2023-03-16T11:09:04;101192.41;;;10.63;53.29
74627;BME280;63132;52.268;5.192;2023-03-16T11:11:33;101187.78;;;10.41;52.50
74627;BME280;63132;52.268;5.192;2023-03-16T11:14:01;101190.97;;;10.46;52.79
74627;BME280;63132;52.268;5.192;2023-03-16T11:16:32;101192.88;;;10.44;52.99
74627;BME280;63132;52.268;5.192;2023-03-16T11:21:46;101180.34;;;10.71;54.33
74627;BME280;63132;52.268;5.192;2023-03-16T11:24:22;101175.16;;;10.69;53.77
74627;BME280;63132;52.268;5.192;2023-03-16T11:26:53;101171.00;;;10.65;52.74
74627;BME280;63132;52.268;5.192;2023-03-16T11:29:26;101176.59;;;10.49;51.93
74627;BME280;63132;52.268;5.192;2023-03-16T11:31:56;101163.53;;;10.70;52.26
74627;BME280;63132;52.268;5.192;2023-03-16T11:34:27;101168.84;;;10.70;53.47
74627;BME280;63132;52.268;5.192;2023-03-16T11:40:19;101161.75;;;11.18;51.07
74627;BME280;63132;52.268;5.192;2023-03-16T11:43:24;101172.44;;;11.41;50.41
74627;BME280;63132;52.268;5.192;2023-03-16T11:46:14;101164.53;;;11.17;50.45
74627;BME280;63132;52.268;5.192;2023-03-16T11:48:59;101161.03;;;11.39;51.92
74627;BME280;63132;52.268;5.192;2023-03-16T12:08:56;101142.75;;;12.48;48.87
74627;BME280;63132;52.268;5.192;2023-03-16T12:11:26;101150.97;;;12.56;47.81
74627;BME280;63132;52.268;5.192;2023-03-16T12:14:23;101144.69;;;12.46;46.36
74627;BME280;63132;52.268;5.192;2023-03-16T12:17:09;101145.97;;;12.63;47.32
74627;BME280;63132;52.268;5.192;2023-03-16T12:19:59;101150.53;;;12.72;46.64
74627;BME280;63132;52.268;5.192;2023-03-16T12:22:36;101144.81;;;12.77;45.50
74627;BME280;63132;52.268;5.192;2023-03-16T12:25:03;101138.53;;;12.66;44.89
74627;BME280;63132;52.268;5.192;2023-03-16T12:27:39;101146.91;;;12.40;45.51
74627;BME280;63132;52.268;5.192;2023-03-16T12:33:21;101133.72;;;12.60;44.87
74627;BME280;63132;52.268;5.192;2023-03-16T12:42:08;101112.72;;;12.88;44.81
74627;BME280;63132;52.268;5.192;2023-03-16T12:49:16;101094.09;;;13.30;42.93
74627;BME280;63132;52.268;5.192;2023-03-16T12:51:43;101087.28;;;13.16;43.32
74627;BME280;63132;52.268;5.192;2023-03-16T12:54:30;101077.41;;;13.37;44.22
74627;BME280;63132;52.268;5.192;2023-03-16T12:57:04;101068.09;;;13.73;44.49
74627;BME280;63132;52.268;5.192;2023-03-16T12:59:44;101053.50;;;13.36;43.10
74627;BME280;63132;52.268;5.192;2023-03-16T13:02:18;101044.44;;;13.27;43.00
74627;BME280;63132;52.268;5.192;2023-03-16T13:04:48;101045.34;;;13.06;44.55
74627;BME280;63132;52.268;5.192;2023-03-16T13:07:21;101042.56;;;13.18;42.95
74627;BME280;63132;52.268;5.192;2023-03-16T13:09:55;101030.50;;;13.13;43.11
74627;BME280;63132;52.268;5.192;2023-03-16T13:12:28;101026.78;;;13.05;44.54
74627;BME280;63132;52.268;5.192;2023-03-16T13:14:55;101029.31;;;13.06;43.46
74627;BME280;63132;52.268;5.192;2023-03-16T13:17:28;101022.81;;;13.30;42.82
74627;BME280;63132;52.268;5.192;2023-03-16T13:22:50;101029.97;;;13.61;43.33
74627;BME280;63132;52.268;5.192;2023-03-16T13:27:57;101019.97;;;13.73;41.24
74627;BME280;63132;52.268;5.192;2023-03-16T13:30:27;101029.44;;;13.97;42.19
74627;BME280;63132;52.268;5.192;2023-03-16T13:32:58;101025.78;;;13.98;41.31
74627;BME280;63132;52.268;5.192;2023-03-16T13:35:27;101021.81;;;13.82;41.29
74627;BME280;63132;52.268;5.192;2023-03-16T13:37:53;101014.91;;;13.70;41.38
74627;BME280;63132;52.268;5.192;2023-03-16T13:40:19;101024.22;;;13.85;41.41
74627;BME280;63132;52.268;5.192;2023-03-16T13:42:47;101020.84;;;13.83;40.97
74627;BME280;63132;52.268;5.192;2023-03-16T13:45:35;101012.25;;;13.80;41.05
74627;BME280;63132;52.268;5.192;2023-03-16T13:48:02;101003.28;;;14.11;40.42
74627;BME280;63132;52.268;5.192;2023-03-16T13:50:30;101015.22;;;14.26;40.81
74627;BME280;63132;52.268;5.192;2023-03-16T13:52:58;101008.63;;;14.11;40.41
74627;BME280;63132;52.268;5.192;2023-03-16T13:55:35;101004.81;;;14.03;39.44
74627;BME280;63132;52.268;5.192;2023-03-16T13:58:01;101007.50;;;13.93;40.23
74627;BME280;63132;52.268;5.192;2023-03-16T14:00:33;101008.75;;;13.79;40.14
74627;BME280;63132;52.268;5.192;2023-03-16T14:03:08;101012.41;;;14.08;40.18
74627;BME280;63132;52.268;5.192;2023-03-16T14:05:38;101011.84;;;13.75;40.16
74627;BME280;63132;52.268;5.192;2023-03-16T14:08:19;100997.19;;;13.69;41.22
74627;BME280;63132;52.268;5.192;2023-03-16T14:10:46;101007.06;;;13.78;41.00